sensor_id;sensor_type;location;lat;lon;timestamp;P1;durP1;ratioP1;P2;durP2;ratioP2
7903;SDS011;3997;48.416;8.512;2023-04-07T00:01:12;6.78;;;6.10;;
7903;SDS011;3997;48.416;8.512;2023-04-07T00:03:38;6.72;;;6.10;;
7903;SDS011;3997;48.416;8.512;2023-04-07T00:06:06;7.10;;;6.30;;
7903;SDS011;3997;48.416;8.512;2023-04-07T00:08:32;6.75;;;6.15;;
7903;SDS011;3997;48.416;8.512;2023-04-07T00:11:00;6.57;;;5.97;;
7903;SDS011;3997;48.416;8.512;2023-04-07T00:13:26;6.80;;;6.18;;
7903;SDS011;3997;48.416;8.512;2023-04-07T00:15:53;6.55;;;5.80;;
7903;SDS011;3997;48.416;8.512;2023-04-07T00:18:19;7.93;;;5.78;;
7903;SDS011;3997;48.416;8.512;2023-04-07T00:20:46;6.35;;;5.70;;
7903;SDS011;3997;48.416;8.512;2023-04-07T00:23:12;8.73;;;5.95;;
7903;SDS011;3997;48.416;8.512;2023-04-07T00:25:39;6.65;;;5.25;;
7903;SDS011;3997;48.416;8.512;2023-04-07T00:28:06;6.75;;;6.00;;
7903;SDS011;3997;48.416;8.512;2023-04-07T00:30:33;5.93;;;5.38;;
7903;SDS011;3997;48.416;8.512;2023-04-07T00:32:59;5.80;;;5.30;;
7903;SDS011;3997;48.416;8.512;2023-04-07T00:35:26;5.68;;;5.18;;
7903;SDS011;3997;48.416;8.512;2023-04-07T00:37:52;8.10;;;5.75;;
7903;SDS011;3997;48.416;8.512;2023-04-07T00:40:19;6.20;;;5.60;;
7903;SDS011;3997;48.416;8.512;2023-04-07T00:42:45;9.77;;;5.72;;
7903;SDS011;3997;48.416;8.512;2023-04-07T00:45:13;6.75;;;6.05;;
7903;SDS011;3997;48.416;8.512;2023-04-07T00:47:39;7.80;;;6.43;;
7903;SDS011;3997;48.416;8.512;2023-04-07T00:50:06;6.93;;;6.25;;
7903;SDS011;3997;48.416;8.512;2023-04-07T00:52:33;7.53;;;6.35;;
7903;SDS011;3997;48.416;8.512;2023-04-07T00:54:59;6.35;;;5.75;;
7903;SDS011;3997;48.416;8.512;2023-04-07T00:57:26;6.93;;;6.32;;
7903;SDS011;3997;48.416;8.512;2023-04-07T00:59:53;7.38;;;6.43;;
7903;SDS011;3997;48.416;8.512;2023-04-07T01:02:22;6.22;;;5.63;;
7903;SDS011;3997;48.416;8.512;2023-04-07T01:04:53;6.75;;;6.05;;
7903;SDS011;3997;48.416;8.512;2023-04-07T01:07:22;6.45;;;5.85;;
7903;SDS011;3997;48.416;8.512;2023-04-07T01:09:52;7.03;;;6.00;;
7903;SDS011;3997;48.416;8.512;2023-04-07T01:12:21;6.18;;;5.57;;
7903;SDS011;3997;48.416;8.512;2023-04-07T01:14:50;5.80;;;5.30;;
7903;SDS011;3997;48.416;8.512;2023-04-07T01:17:17;6.60;;;6.00;;
7903;SDS011;3997;48.416;8.512;2023-04-07T01:19:47;6.13;;;5.60;;
7903;SDS011;3997;48.416;8.512;2023-04-07T01:22:16;6.53;;;5.93;;
7903;SDS011;3997;48.416;8.512;2023-04-07T01:24:57;7.75;;;5.80;;
7903;SDS011;3997;48.416;8.512;2023-04-07T01:27:32;6.45;;;5.88;;
7903;SDS011;3997;48.416;8.512;2023-04-07T01:30:01;6.20;;;5.60;;
7903;SDS011;3997;48.416;8.512;2023-04-07T01:32:28;7.38;;;5.90;;
7903;SDS011;3997;48.416;8.512;2023-04-07T01:34:55;6.53;;;5.88;;
7903;SDS011;3997;48.416;8.512;2023-04-07T01:37:22;6.95;;;6.25;;
7903;SDS011;3997;48.416;8.512;2023-04-07T01:39:50;7.25;;;5.97;;
7903;SDS011;3997;48.416;8.512;2023-04-07T01:42:16;6.45;;;5.85;;
7903;SDS011;3997;48.416;8.512;2023-04-07T01:44:44;6.47;;;5.97;;
7903;SDS011;3997;48.416;8.512;2023-04-07T01:47:12;6.88;;;5.97;;
7903;SDS011;3997;48.416;8.512;2023-04-07T01:49:40;6.43;;;5.82;;
7903;SDS011;3997;48.416;8.512;2023-04-07T01:52:07;6.93;;;6.22;;
7903;SDS011;3997;48.416;8.512;2023-04-07T01:54:33;6.90;;;6.20;;
7903;SDS011;3997;48.416;8.512;2023-04-07T01:57:00;6.45;;;5.85;;
7903;SDS011;3997;48.416;8.512;2023-04-07T01:59:26;6.57;;;5.97;;
7903;SDS011;3997;48.416;8.512;2023-04-07T02:01:53;6.50;;;5.90;;
7903;SDS011;3997;48.416;8.512;2023-04-07T02:04:23;7.00;;;5.78;;
7903;SDS011;3997;48.416;8.512;2023-04-07T02:06:52;6.28;;;5.07;;
7903;SDS011;3997;48.416;8.512;2023-04-07T02:09:20;7.78;;;5.65;;
7903;SDS011;3997;48.416;8.512;2023-04-07T02:11:47;6.60;;;5.90;;
7903;SDS011;3997;48.416;8.512;2023-04-07T02:14:15;5.93;;;5.43;;
7903;SDS011;3997;48.416;8.512;2023-04-07T02:16:42;5.63;;;5.13;;
7903;SDS011;3997;48.416;8.512;2023-04-07T02:19:09;6.40;;;5.80;;
7903;SDS011;3997;48.416;8.512;2023-04-07T02:21:37;7.38;;;5.60;;
7903;SDS011;3997;48.416;8.512;2023-04-07T02:24:05;6.25;;;5.65;;
7903;SDS011;3997;48.416;8.512;2023-04-07T02:26:32;6.55;;;5.25;;
7903;SDS011;3997;48.416;8.512;2023-04-07T02:28:59;6.15;;;5.55;;
7903;SDS011;3997;48.416;8.512;2023-04-07T02:31:25;6.43;;;5.35;;
7903;SDS011;3997;48.416;8.512;2023-04-07T02:33:51;7.57;;;5.57;;
7903;SDS011;3997;48.416;8.512;2023-04-07T02:36:18;6.40;;;5.22;;
7903;SDS011;3997;48.416;8.512;2023-04-07T02:38:46;7.00;;;5.63;;
7903;SDS011;3997;48.416;8.512;2023-04-07T02:41:12;6.57;;;5.53;;
7903;SDS011;3997;48.416;8.512;2023-04-07T02:43:38;6.38;;;5.43;;
7903;SDS011;3997;48.416;8.512;2023-04-07T02:46:05;5.32;;;4.82;;
7903;SDS011;3997;48.416;8.512;2023-04-07T02:48:31;7.10;;;5.05;;
7903;SDS011;3997;48.416;8.512;2023-04-07T02:50:58;6.93;;;5.68;;
7903;SDS011;3997;48.416;8.512;2023-04-07T02:53:24;6.15;;;5.57;;
7903;SDS011;3997;48.416;8.512;2023-04-07T02:55:52;5.18;;;4.68;;
7903;SDS011;3997;48.416;8.512;2023-04-07T02:58:19;5.63;;;5.03;;
7903;SDS011;3997;48.416;8.512;2023-04-07T03:00:46;5.20;;;4.70;;
7903;SDS011;3997;48.416;8.512;2023-04-07T03:03:13;6.20;;;5.50;;
7903;SDS011;3997;48.416;8.512;2023-04-07T03:05:39;4.78;;;4.13;;
7903;SDS011;3997;48.416;8.512;2023-04-07T03:08:06;7.32;;;4.78;;
7903;SDS011;3997;48.416;8.512;2023-04-07T03:10:32;6.15;;;5.28;;
7903;SDS011;3997;48.416;8.512;2023-04-07T03:13:01;5.68;;;5.13;;
7903;SDS011;3997;48.416;8.512;2023-04-07T03:15:27;5.32;;;4.82;;
7903;SDS011;3997;48.416;8.512;2023-04-07T03:17:54;6.68;;;5.50;;
7903;SDS011;3997;48.416;8.512;2023-04-07T03:20:21;7.80;;;5.80;;
7903;SDS011;3997;48.416;8.512;2023-04-07T03:22:47;6.80;;;6.10;;
7903;SDS011;3997;48.416;8.512;2023-04-07T03:25:13;7.22;;;6.20;;
7903;SDS011;3997;48.416;8.512;2023-04-07T03:27:40;7.15;;;5.90;;
7903;SDS011;3997;48.416;8.512;2023-04-07T03:30:08;10.80;;;6.70;;
7903;SDS011;3997;48.416;8.512;2023-04-07T03:32:35;7.03;;;5.93;;
7903;SDS011;3997;48.416;8.512;2023-04-07T03:35:01;7.93;;;6.50;;
7903;SDS011;3997;48.416;8.512;2023-04-07T03:37:28;7.85;;;6.75;;
7903;SDS011;3997;48.416;8.512;2023-04-07T03:39:54;7.60;;;6.78;;
7903;SDS011;3997;48.416;8.512;2023-04-07T03:42:21;7.82;;;6.60;;
7903;SDS011;3997;48.416;8.512;2023-04-07T03:44:47;8.25;;;6.13;;
7903;SDS011;3997;48.416;8.512;2023-04-07T03:47:15;7.43;;;6.35;;
7903;SDS011;3997;48.416;8.512;2023-04-07T03:49:41;8.73;;;6.20;;
7903;SDS011;3997;48.416;8.512;2023-04-07T03:52:08;6.57;;;5.85;;
7903;SDS011;3997;48.416;8.512;2023-04-07T03:54:35;6.93;;;5.50;;
7903;SDS011;3997;48.416;8.512;2023-04-07T03:57:01;6.18;;;5.55;;
7903;SDS011;3997;48.416;8.512;2023-04-07T03:59:28;6.32;;;5.72;;
7903;SDS011;3997;48.416;8.512;2023-04-07T04:01:54;6.00;;;5.22;;
7903;SDS011;3997;48.416;8.512;2023-04-07T04:04:22;6.68;;;5.60;;
7903;SDS011;3997;48.416;8.512;2023-04-07T04:06:49;6.78;;;5.30;;
7903;SDS011;3997;48.416;8.512;2023-04-07T04:09:16;7.22;;;6.30;;
7903;SDS011;3997;48.416;8.512;2023-04-07T04:11:42;6.90;;;5.70;;
7903;SDS011;3997;48.416;8.512;2023-04-07T04:14:08;6.22;;;5.63;;
7903;SDS011;3997;48.416;8.512;2023-04-07T04:16:35;7.13;;;6.07;;
7903;SDS011;3997;48.416;8.512;2023-04-07T04:19:01;6.60;;;5.90;;
7903;SDS011;3997;48.416;8.512;2023-04-07T04:21:29;8.10;;;6.28;;
7903;SDS011;3997;48.416;8.512;2023-04-07T04:23:56;6.53;;;5.72;;
7903;SDS011;3997;48.416;8.512;2023-04-07T04:26:22;5.85;;;5.32;;
7903;SDS011;3997;48.416;8.512;2023-04-07T04:28:50;4.97;;;4.55;;
7903;SDS011;3997;48.416;8.512;2023-04-07T04:31:16;6.43;;;5.32;;
7903;SDS011;3997;48.416;8.512;2023-04-07T04:33:43;6.47;;;5.00;;
7903;SDS011;3997;48.416;8.512;2023-04-07T04:36:09;6.65;;;5.25;;
7903;SDS011;3997;48.416;8.512;2023-04-07T04:38:37;6.40;;;5.70;;
7903;SDS011;3997;48.416;8.512;2023-04-07T04:41:03;6.95;;;6.25;;
7903;SDS011;3997;48.416;8.512;2023-04-07T04:43:30;7.20;;;6.20;;
7903;SDS011;3997;48.416;8.512;2023-04-07T04:45:57;6.35;;;5.68;;
7903;SDS011;3997;48.416;8.512;2023-04-07T04:48:23;6.07;;;5.47;;
7903;SDS011;3997;48.416;8.512;2023-04-07T04:50:50;5.40;;;4.90;;
7903;SDS011;3997;48.416;8.512;2023-04-07T04:53:16;4.97;;;4.50;;
7903;SDS011;3997;48.416;8.512;2023-04-07T04:55:44;5.13;;;4.63;;
7903;SDS011;3997;48.416;8.512;2023-04-07T04:58:15;6.05;;;5.45;;
7903;SDS011;3997;48.416;8.512;2023-04-07T05:00:42;6.78;;;5.57;;
7903;SDS011;3997;48.416;8.512;2023-04-07T05:03:08;5.07;;;4.57;;
7903;SDS011;3997;48.416;8.512;2023-04-07T05:05:35;5.40;;;4.60;;
7903;SDS011;3997;48.416;8.512;2023-04-07T05:08:01;5.88;;;5.03;;
7903;SDS011;3997;48.416;8.512;2023-04-07T05:10:28;6.65;;;5.68;;
7903;SDS011;3997;48.416;8.512;2023-04-07T05:12:55;8.68;;;6.50;;
7903;SDS011;3997;48.416;8.512;2023-04-07T05:15:22;8.30;;;6.35;;
7903;SDS011;3997;48.416;8.512;2023-04-07T05:17:48;9.25;;;6.60;;
7903;SDS011;3997;48.416;8.512;2023-04-07T05:20:15;6.78;;;5.97;;
7903;SDS011;3997;48.416;8.512;2023-04-07T05:22:41;6.28;;;5.15;;
7903;SDS011;3997;48.416;8.512;2023-04-07T05:25:08;7.53;;;5.80;;
7903;SDS011;3997;48.416;8.512;2023-04-07T05:27:34;7.38;;;5.82;;
7903;SDS011;3997;48.416;8.512;2023-04-07T05:30:02;6.38;;;5.78;;
7903;SDS011;3997;48.416;8.512;2023-04-07T05:32:29;5.53;;;4.88;;
7903;SDS011;3997;48.416;8.512;2023-04-07T05:34:55;6.68;;;5.00;;
7903;SDS011;3997;48.416;8.512;2023-04-07T05:37:22;5.65;;;5.15;;
7903;SDS011;3997;48.416;8.512;2023-04-07T05:39:48;5.90;;;5.32;;
7903;SDS011;3997;48.416;8.512;2023-04-07T05:42:15;5.70;;;5.20;;
7903;SDS011;3997;48.416;8.512;2023-04-07T05:44:41;6.13;;;5.55;;
7903;SDS011;3997;48.416;8.512;2023-04-07T05:47:09;5.30;;;4.80;;
7903;SDS011;3997;48.416;8.512;2023-04-07T05:49:36;5.53;;;4.88;;
7903;SDS011;3997;48.416;8.512;2023-04-07T05:52:04;7.10;;;5.38;;
7903;SDS011;3997;48.416;8.512;2023-04-07T05:54:31;6.32;;;5.32;;
7903;SDS011;3997;48.416;8.512;2023-04-07T05:56:57;8.02;;;5.50;;
7903;SDS011;3997;48.416;8.512;2023-04-07T05:59:24;6.40;;;4.60;;
7903;SDS011;3997;48.416;8.512;2023-04-07T06:01:50;4.70;;;4.30;;
7903;SDS011;3997;48.416;8.512;2023-04-07T06:04:18;5.32;;;4.38;;
7903;SDS011;3997;48.416;8.512;2023-04-07T06:06:45;4.97;;;4.47;;
7903;SDS011;3997;48.416;8.512;2023-04-07T06:09:11;5.60;;;5.10;;
7903;SDS011;3997;48.416;8.512;2023-04-07T06:11:38;8.57;;;7.38;;
7903;SDS011;3997;48.416;8.512;2023-04-07T06:14:04;26.27;;;16.92;;
7903;SDS011;3997;48.416;8.512;2023-04-07T06:16:31;7.47;;;6.47;;
7903;SDS011;3997;48.416;8.512;2023-04-07T06:18:57;7.13;;;6.40;;
7903;SDS011;3997;48.416;8.512;2023-04-07T06:21:25;7.32;;;6.55;;
7903;SDS011;3997;48.416;8.512;2023-04-07T06:23:52;6.75;;;6.05;;
7903;SDS011;3997;48.416;8.512;2023-04-07T06:26:18;5.95;;;5.38;;
7903;SDS011;3997;48.416;8.512;2023-04-07T06:28:45;6.60;;;5.60;;
7903;SDS011;3997;48.416;8.512;2023-04-07T06:31:12;14.63;;;10.68;;
7903;SDS011;3997;48.416;8.512;2023-04-07T06:33:38;10.68;;;7.95;;
7903;SDS011;3997;48.416;8.512;2023-04-07T06:36:05;9.40;;;7.85;;
7903;SDS011;3997;48.416;8.512;2023-04-07T06:38:33;6.97;;;6.30;;
7903;SDS011;3997;48.416;8.512;2023-04-07T06:40:59;7.82;;;6.03;;
7903;SDS011;3997;48.416;8.512;2023-04-07T06:43:26;5.68;;;5.13;;
7903;SDS011;3997;48.416;8.512;2023-04-07T06:45:52;6.07;;;5.35;;
7903;SDS011;3997;48.416;8.512;2023-04-07T06:48:19;5.90;;;5.38;;
7903;SDS011;3997;48.416;8.512;2023-04-07T06:50:45;7.53;;;6.40;;
7903;SDS011;3997;48.416;8.512;2023-04-07T06:53:12;7.38;;;5.65;;
7903;SDS011;3997;48.416;8.512;2023-04-07T06:55:40;7.97;;;5.38;;
7903;SDS011;3997;48.416;8.512;2023-04-07T06:58:06;5.75;;;5.25;;
7903;SDS011;3997;48.416;8.512;2023-04-07T07:00:33;9.30;;;8.40;;
7903;SDS011;3997;48.416;8.512;2023-04-07T07:03:00;5.70;;;5.05;;
7903;SDS011;3997;48.416;8.512;2023-04-07T07:05:26;7.68;;;5.28;;
7903;SDS011;3997;48.416;8.512;2023-04-07T07:07:53;5.43;;;4.93;;
7903;SDS011;3997;48.416;8.512;2023-04-07T07:10:19;5.65;;;4.80;;
7903;SDS011;3997;48.416;8.512;2023-04-07T07:12:48;6.13;;;5.30;;
7903;SDS011;3997;48.416;8.512;2023-04-07T07:15:14;5.50;;;4.93;;
7903;SDS011;3997;48.416;8.512;2023-04-07T07:17:41;6.03;;;5.30;;
7903;SDS011;3997;48.416;8.512;2023-04-07T07:20:08;5.30;;;4.50;;
7903;SDS011;3997;48.416;8.512;2023-04-07T07:22:34;4.85;;;4.10;;
7903;SDS011;3997;48.416;8.512;2023-04-07T07:25:01;6.95;;;4.50;;
7903;SDS011;3997;48.416;8.512;2023-04-07T07:27:27;4.47;;;4.05;;
7903;SDS011;3997;48.416;8.512;2023-04-07T07:29:55;5.20;;;4.30;;
7903;SDS011;3997;48.416;8.512;2023-04-07T07:32:21;4.68;;;4.28;;
7903;SDS011;3997;48.416;8.512;2023-04-07T07:34:48;4.60;;;3.90;;
7903;SDS011;3997;48.416;8.512;2023-04-07T07:37:14;4.80;;;4.30;;
7903;SDS011;3997;48.416;8.512;2023-04-07T07:39:41;4.65;;;3.95;;
7903;SDS011;3997;48.416;8.512;2023-04-07T07:42:08;4.07;;;3.67;;
7903;SDS011;3997;48.416;8.512;2023-04-07T07:44:34;4.10;;;3.70;;
7903;SDS011;3997;48.416;8.512;2023-04-07T07:47:02;5.05;;;3.90;;
7903;SDS011;3997;48.416;8.512;2023-04-07T07:49:28;4.72;;;3.70;;
7903;SDS011;3997;48.416;8.512;2023-04-07T07:51:55;4.82;;;3.60;;
7903;SDS011;3997;48.416;8.512;2023-04-07T07:54:21;4.75;;;3.70;;
7903;SDS011;3997;48.416;8.512;2023-04-07T07:56:48;4.15;;;3.75;;
7903;SDS011;3997;48.416;8.512;2023-04-07T07:59:14;4.97;;;3.17;;
7903;SDS011;3997;48.416;8.512;2023-04-07T08:01:40;4.15;;;3.70;;
7903;SDS011;3997;48.416;8.512;2023-04-07T08:04:08;4.50;;;3.70;;
7903;SDS011;3997;48.416;8.512;2023-04-07T08:06:35;4.90;;;3.42;;
7903;SDS011;3997;48.416;8.512;2023-04-07T08:09:01;4.15;;;3.75;;
7903;SDS011;3997;48.416;8.512;2023-04-07T08:11:28;3.60;;;3.30;;
7903;SDS011;3997;48.416;8.512;2023-04-07T08:13:54;4.97;;;3.13;;
7903;SDS011;3997;48.416;8.512;2023-04-07T08:16:21;4.82;;;2.90;;
7903;SDS011;3997;48.416;8.512;2023-04-07T08:18:48;3.10;;;2.80;;
7903;SDS011;3997;48.416;8.512;2023-04-07T08:21:16;4.95;;;2.97;;
7903;SDS011;3997;48.416;8.512;2023-04-07T08:23:42;3.35;;;3.08;;
7903;SDS011;3997;48.416;8.512;2023-04-07T08:26:10;3.42;;;3.13;;
7903;SDS011;3997;48.416;8.512;2023-04-07T08:28:36;4.60;;;3.38;;
7903;SDS011;3997;48.416;8.512;2023-04-07T08:31:03;3.58;;;3.10;;
7903;SDS011;3997;48.416;8.512;2023-04-07T08:33:30;5.78;;;3.50;;
7903;SDS011;3997;48.416;8.512;2023-04-07T08:35:56;6.15;;;3.95;;
7903;SDS011;3997;48.416;8.512;2023-04-07T08:38:25;3.83;;;3.53;;
7903;SDS011;3997;48.416;8.512;2023-04-07T08:40:54;4.07;;;3.25;;
7903;SDS011;3997;48.416;8.512;2023-04-07T08:43:23;8.25;;;4.30;;
7903;SDS011;3997;48.416;8.512;2023-04-07T08:45:51;4.03;;;3.72;;
7903;SDS011;3997;48.416;8.512;2023-04-07T08:48:20;4.72;;;3.63;;
7903;SDS011;3997;48.416;8.512;2023-04-07T08:50:50;3.97;;;3.40;;
7903;SDS011;3997;48.416;8.512;2023-04-07T08:53:18;5.25;;;3.05;;
7903;SDS011;3997;48.416;8.512;2023-04-07T08:55:48;3.80;;;3.50;;
7903;SDS011;3997;48.416;8.512;2023-04-07T08:58:14;6.57;;;3.10;;
7903;SDS011;3997;48.416;8.512;2023-04-07T09:00:41;4.72;;;3.70;;
7903;SDS011;3997;48.416;8.512;2023-04-07T09:03:09;3.90;;;3.60;;
7903;SDS011;3997;48.416;8.512;2023-04-07T09:05:36;5.88;;;3.22;;
7903;SDS011;3997;48.416;8.512;2023-04-07T09:08:03;3.65;;;3.38;;
7903;SDS011;3997;48.416;8.512;2023-04-07T09:10:30;4.13;;;3.50;;
7903;SDS011;3997;48.416;8.512;2023-04-07T09:12:58;4.40;;;3.42;;
7903;SDS011;3997;48.416;8.512;2023-04-07T09:15:25;3.50;;;3.20;;
7903;SDS011;3997;48.416;8.512;2023-04-07T09:17:55;3.17;;;2.92;;
7903;SDS011;3997;48.416;8.512;2023-04-07T09:20:22;3.33;;;2.88;;
7903;SDS011;3997;48.416;8.512;2023-04-07T09:22:49;3.15;;;2.85;;
7903;SDS011;3997;48.416;8.512;2023-04-07T09:25:16;4.18;;;3.35;;
7903;SDS011;3997;48.416;8.512;2023-04-07T09:30:29;3.78;;;3.08;;
7903;SDS011;3997;48.416;8.512;2023-04-07T09:32:56;4.07;;;3.00;;
7903;SDS011;3997;48.416;8.512;2023-04-07T09:35:22;3.20;;;2.90;;
7903;SDS011;3997;48.416;8.512;2023-04-07T09:38:01;3.15;;;2.83;;
7903;SDS011;3997;48.416;8.512;2023-04-07T09:40:28;2.60;;;2.40;;
7903;SDS011;3997;48.416;8.512;2023-04-07T09:42:55;2.53;;;2.33;;
7903;SDS011;3997;48.416;8.512;2023-04-07T09:45:22;2.80;;;2.60;;
7903;SDS011;3997;48.416;8.512;2023-04-07T09:47:50;2.42;;;2.30;;
7903;SDS011;3997;48.416;8.512;2023-04-07T09:50:23;3.00;;;2.72;;
7903;SDS011;3997;48.416;8.512;2023-04-07T09:52:56;2.97;;;2.50;;
7903;SDS011;3997;48.416;8.512;2023-04-07T09:55:23;2.70;;;2.20;;
7903;SDS011;3997;48.416;8.512;2023-04-07T09:57:50;2.70;;;2.47;;
7903;SDS011;3997;48.416;8.512;2023-04-07T10:00:16;4.65;;;2.33;;
7903;SDS011;3997;48.416;8.512;2023-04-07T10:02:43;2.92;;;2.63;;
7903;SDS011;3997;48.416;8.512;2023-04-07T10:05:11;2.65;;;2.17;;
7903;SDS011;3997;48.416;8.512;2023-04-07T10:07:37;2.75;;;2.55;;
7903;SDS011;3997;48.416;8.512;2023-04-07T10:10:04;3.70;;;2.40;;
7903;SDS011;3997;48.416;8.512;2023-04-07T10:12:32;9.80;;;5.47;;
7903;SDS011;3997;48.416;8.512;2023-04-07T10:14:59;3.90;;;2.45;;
7903;SDS011;3997;48.416;8.512;2023-04-07T10:17:25;2.55;;;2.35;;
7903;SDS011;3997;48.416;8.512;2023-04-07T10:19:53;2.60;;;2.38;;
7903;SDS011;3997;48.416;8.512;2023-04-07T10:22:21;3.22;;;2.22;;
7903;SDS011;3997;48.416;8.512;2023-04-07T10:24:50;2.60;;;2.40;;
7903;SDS011;3997;48.416;8.512;2023-04-07T10:27:19;3.42;;;2.45;;
7903;SDS011;3997;48.416;8.512;2023-04-07T10:29:47;3.63;;;2.13;;
7903;SDS011;3997;48.416;8.512;2023-04-07T10:32:14;4.03;;;2.60;;
7903;SDS011;3997;48.416;8.512;2023-04-07T10:34:54;3.00;;;2.50;;
7903;SDS011;3997;48.416;8.512;2023-04-07T10:37:24;4.50;;;2.33;;
7903;SDS011;3997;48.416;8.512;2023-04-07T10:42:45;4.03;;;2.53;;
7903;SDS011;3997;48.416;8.512;2023-04-07T10:45:13;3.08;;;2.58;;
7903;SDS011;3997;48.416;8.512;2023-04-07T10:50:21;2.78;;;2.55;;
7903;SDS011;3997;48.416;8.512;2023-04-07T10:53:03;2.97;;;2.70;;
7903;SDS011;3997;48.416;8.512;2023-04-07T10:55:32;3.50;;;2.83;;
7903;SDS011;3997;48.416;8.512;2023-04-07T11:03:25;3.50;;;3.20;;
7903;SDS011;3997;48.416;8.512;2023-04-07T11:05:52;2.65;;;2.45;;
7903;SDS011;3997;48.416;8.512;2023-04-07T11:08:32;6.00;;;3.58;;
7903;SDS011;3997;48.416;8.512;2023-04-07T11:10:58;3.08;;;2.78;;
7903;SDS011;3997;48.416;8.512;2023-04-07T11:13:25;4.18;;;3.78;;
7903;SDS011;3997;48.416;8.512;2023-04-07T11:15:52;6.95;;;5.32;;
7903;SDS011;3997;48.416;8.512;2023-04-07T11:18:18;3.90;;;2.50;;
7903;SDS011;3997;48.416;8.512;2023-04-07T11:20:49;4.80;;;4.22;;
7903;SDS011;3997;48.416;8.512;2023-04-07T11:23:16;6.70;;;6.00;;
7903;SDS011;3997;48.416;8.512;2023-04-07T11:25:45;4.00;;;3.65;;
7903;SDS011;3997;48.416;8.512;2023-04-07T11:28:12;3.42;;;2.50;;
7903;SDS011;3997;48.416;8.512;2023-04-07T11:30:43;4.95;;;3.30;;
7903;SDS011;3997;48.416;8.512;2023-04-07T11:33:13;2.83;;;2.53;;
7903;SDS011;3997;48.416;8.512;2023-04-07T11:35:45;3.70;;;2.97;;
7903;SDS011;3997;48.416;8.512;2023-04-07T11:38:12;3.70;;;2.85;;
7903;SDS011;3997;48.416;8.512;2023-04-07T11:40:38;5.40;;;3.72;;
7903;SDS011;3997;48.416;8.512;2023-04-07T11:43:15;8.38;;;6.20;;
7903;SDS011;3997;48.416;8.512;2023-04-07T11:45:42;12.40;;;7.45;;
7903;SDS011;3997;48.416;8.512;2023-04-07T11:50:50;3.40;;;2.90;;
7903;SDS011;3997;48.416;8.512;2023-04-07T11:53:23;4.45;;;3.67;;
7903;SDS011;3997;48.416;8.512;2023-04-07T11:55:57;3.17;;;2.50;;
7903;SDS011;3997;48.416;8.512;2023-04-07T11:58:25;2.50;;;2.30;;
7903;SDS011;3997;48.416;8.512;2023-04-07T12:00:52;4.95;;;2.65;;
7903;SDS011;3997;48.416;8.512;2023-04-07T12:03:19;2.15;;;2.05;;
7903;SDS011;3997;48.416;8.512;2023-04-07T12:05:45;2.30;;;2.13;;
7903;SDS011;3997;48.416;8.512;2023-04-07T12:08:12;2.20;;;2.08;;
7903;SDS011;3997;48.416;8.512;2023-04-07T12:10:38;2.92;;;2.15;;
7903;SDS011;3997;48.416;8.512;2023-04-07T12:13:05;3.22;;;2.08;;
7903;SDS011;3997;48.416;8.512;2023-04-07T12:15:33;2.47;;;2.28;;
7903;SDS011;3997;48.416;8.512;2023-04-07T12:18:01;2.53;;;2.08;;
7903;SDS011;3997;48.416;8.512;2023-04-07T12:20:27;3.10;;;1.92;;
7903;SDS011;3997;48.416;8.512;2023-04-07T12:22:54;2.20;;;1.90;;
7903;SDS011;3997;48.416;8.512;2023-04-07T12:25:20;1.92;;;1.83;;
7903;SDS011;3997;48.416;8.512;2023-04-07T12:27:47;2.45;;;2.25;;
7903;SDS011;3997;48.416;8.512;2023-04-07T12:30:13;3.58;;;3.20;;
7903;SDS011;3997;48.416;8.512;2023-04-07T12:32:41;4.40;;;2.55;;
7903;SDS011;3997;48.416;8.512;2023-04-07T12:35:08;2.42;;;1.85;;
7903;SDS011;3997;48.416;8.512;2023-04-07T12:37:34;2.72;;;1.85;;
7903;SDS011;3997;48.416;8.512;2023-04-07T12:40:01;2.72;;;2.25;;
7903;SDS011;3997;48.416;8.512;2023-04-07T12:42:27;2.35;;;2.15;;
7903;SDS011;3997;48.416;8.512;2023-04-07T12:44:54;2.10;;;2.00;;
7903;SDS011;3997;48.416;8.512;2023-04-07T12:47:20;2.17;;;2.00;;
7903;SDS011;3997;48.416;8.512;2023-04-07T12:49:48;2.42;;;1.98;;
7903;SDS011;3997;48.416;8.512;2023-04-07T12:52:15;2.22;;;2.00;;
7903;SDS011;3997;48.416;8.512;2023-04-07T12:54:41;2.10;;;1.90;;
7903;SDS011;3997;48.416;8.512;2023-04-07T12:57:09;2.42;;;2.22;;
7903;SDS011;3997;48.416;8.512;2023-04-07T12:59:35;1.70;;;1.60;;
7903;SDS011;3997;48.416;8.512;2023-04-07T13:02:01;2.70;;;2.05;;
7903;SDS011;3997;48.416;8.512;2023-04-07T13:04:28;3.60;;;2.50;;
7903;SDS011;3997;48.416;8.512;2023-04-07T13:06:56;2.40;;;2.30;;
7903;SDS011;3997;48.416;8.512;2023-04-07T13:09:23;2.45;;;2.10;;
7903;SDS011;3997;48.416;8.512;2023-04-07T13:11:50;1.90;;;1.80;;
7903;SDS011;3997;48.416;8.512;2023-04-07T13:14:16;3.83;;;3.03;;
7903;SDS011;3997;48.416;8.512;2023-04-07T13:16:43;2.10;;;2.00;;
7903;SDS011;3997;48.416;8.512;2023-04-07T13:19:09;4.78;;;3.97;;
7903;SDS011;3997;48.416;8.512;2023-04-07T13:21:36;2.50;;;1.75;;
7903;SDS011;3997;48.416;8.512;2023-04-07T13:24:04;2.50;;;1.90;;
7903;SDS011;3997;48.416;8.512;2023-04-07T13:26:30;3.85;;;2.60;;
7903;SDS011;3997;48.416;8.512;2023-04-07T13:28:56;3.00;;;2.70;;
7903;SDS011;3997;48.416;8.512;2023-04-07T13:31:23;3.15;;;2.90;;
7903;SDS011;3997;48.416;8.512;2023-04-07T13:33:49;3.22;;;2.50;;
7903;SDS011;3997;48.416;8.512;2023-04-07T13:36:16;3.22;;;2.25;;
7903;SDS011;3997;48.416;8.512;2023-04-07T13:38:42;2.83;;;2.53;;
7903;SDS011;3997;48.416;8.512;2023-04-07T13:41:10;2.47;;;2.33;;
7903;SDS011;3997;48.416;8.512;2023-04-07T13:43:36;3.05;;;2.22;;
7903;SDS011;3997;48.416;8.512;2023-04-07T13:46:03;3.92;;;2.90;;
7903;SDS011;3997;48.416;8.512;2023-04-07T13:48:29;3.42;;;2.90;;
7903;SDS011;3997;48.416;8.512;2023-04-07T13:50:56;4.72;;;3.97;;
7903;SDS011;3997;48.416;8.512;2023-04-07T13:53:23;10.05;;;6.28;;
7903;SDS011;3997;48.416;8.512;2023-04-07T13:55:49;2.72;;;2.53;;
7903;SDS011;3997;48.416;8.512;2023-04-07T13:58:17;2.83;;;2.55;;
7903;SDS011;3997;48.416;8.512;2023-04-07T14:00:43;3.53;;;2.38;;
7903;SDS011;3997;48.416;8.512;2023-04-07T14:03:10;2.53;;;2.33;;
7903;SDS011;3997;48.416;8.512;2023-04-07T14:05:36;3.92;;;2.50;;
7903;SDS011;3997;48.416;8.512;2023-04-07T14:08:03;2.60;;;2.25;;
7903;SDS011;3997;48.416;8.512;2023-04-07T14:10:29;3.63;;;2.20;;
7903;SDS011;3997;48.416;8.512;2023-04-07T14:12:57;3.65;;;3.05;;
7903;SDS011;3997;48.416;8.512;2023-04-07T14:15:25;3.00;;;2.70;;
7903;SDS011;3997;48.416;8.512;2023-04-07T14:17:51;2.08;;;1.98;;
7903;SDS011;3997;48.416;8.512;2023-04-07T14:20:18;2.40;;;2.20;;
7903;SDS011;3997;48.416;8.512;2023-04-07T14:22:44;4.20;;;2.00;;
7903;SDS011;3997;48.416;8.512;2023-04-07T14:25:11;2.30;;;2.20;;
7903;SDS011;3997;48.416;8.512;2023-04-07T14:27:37;2.47;;;2.17;;
7903;SDS011;3997;48.416;8.512;2023-04-07T14:30:04;2.30;;;2.10;;
7903;SDS011;3997;48.416;8.512;2023-04-07T14:32:32;2.08;;;1.98;;
7903;SDS011;3997;48.416;8.512;2023-04-07T14:34:58;2.28;;;2.08;;
7903;SDS011;3997;48.416;8.512;2023-04-07T14:37:26;2.13;;;2.00;;
7903;SDS011;3997;48.416;8.512;2023-04-07T14:39:52;1.90;;;1.80;;
7903;SDS011;3997;48.416;8.512;2023-04-07T14:42:19;1.63;;;1.50;;
7903;SDS011;3997;48.416;8.512;2023-04-07T14:44:45;1.73;;;1.63;;
7903;SDS011;3997;48.416;8.512;2023-04-07T14:47:12;1.70;;;1.60;;
7903;SDS011;3997;48.416;8.512;2023-04-07T14:49:40;11.10;;;10.20;;
7903;SDS011;3997;48.416;8.512;2023-04-07T14:52:06;5.78;;;4.07;;
7903;SDS011;3997;48.416;8.512;2023-04-07T14:54:33;1.67;;;1.58;;
7903;SDS011;3997;48.416;8.512;2023-04-07T14:56:59;6.47;;;4.70;;
7903;SDS011;3997;48.416;8.512;2023-04-07T14:59:26;2.30;;;2.20;;
7903;SDS011;3997;48.416;8.512;2023-04-07T15:01:52;4.20;;;3.15;;
7903;SDS011;3997;48.416;8.512;2023-04-07T15:04:18;2.63;;;2.42;;
7903;SDS011;3997;48.416;8.512;2023-04-07T15:06:46;2.83;;;2.63;;
7903;SDS011;3997;48.416;8.512;2023-04-07T15:09:13;2.78;;;2.58;;
7903;SDS011;3997;48.416;8.512;2023-04-07T15:11:39;3.10;;;2.90;;
7903;SDS011;3997;48.416;8.512;2023-04-07T15:14:05;6.95;;;6.45;;
7903;SDS011;3997;48.416;8.512;2023-04-07T15:16:32;4.35;;;3.50;;
7903;SDS011;3997;48.416;8.512;2023-04-07T15:18:58;3.58;;;3.28;;
7903;SDS011;3997;48.416;8.512;2023-04-07T15:21:25;2.92;;;2.72;;
7903;SDS011;3997;48.416;8.512;2023-04-07T15:23:53;2.25;;;2.05;;
7903;SDS011;3997;48.416;8.512;2023-04-07T15:26:20;2.58;;;2.38;;
7903;SDS011;3997;48.416;8.512;2023-04-07T15:28:46;2.55;;;2.30;;
7903;SDS011;3997;48.416;8.512;2023-04-07T15:31:13;2.00;;;1.90;;